createdAt,value
2018-04-12T00:02:01.375Z,2.40
2018-04-12T00:04:29.782Z,1.97
2018-04-12T00:06:58.181Z,2.80
2018-04-12T00:09:26.544Z,2.63
2018-04-12T00:11:54.919Z,2.13
2018-04-12T00:14:23.286Z,2.30
2018-04-12T00:16:52.163Z,2.77
2018-04-12T00:19:20.524Z,2.47
2018-04-12T00:21:48.928Z,2.53
2018-04-12T00:24:17.299Z,2.40
2018-04-12T00:26:45.669Z,3.37
2018-04-12T00:29:14.066Z,2.83
2018-04-12T00:31:42.445Z,2.07
2018-04-12T00:34:11.157Z,3.00
2018-04-12T00:36:39.516Z,2.60
2018-04-12T00:39:09.259Z,2.70
2018-04-12T00:41:37.634Z,3.10
2018-04-12T00:44:06.016Z,2.90
2018-04-12T00:46:34.397Z,2.77
2018-04-12T00:49:02.942Z,2.50
2018-04-12T00:51:31.949Z,3.10
2018-04-12T00:54:05.620Z,2.73
2018-04-12T00:56:33.999Z,3.13
2018-04-12T00:59:02.373Z,2.43
2018-04-12T01:01:30.741Z,2.73
2018-04-12T01:03:59.139Z,2.73
2018-04-12T01:06:27.540Z,2.40
2018-04-12T01:08:55.905Z,3.20
2018-04-12T01:11:24.272Z,2.97
2018-04-12T01:13:52.635Z,3.40
2018-04-12T01:16:21.041Z,2.90
2018-04-12T01:18:49.191Z,3.23
2018-04-12T01:21:17.570Z,3.43
2018-04-12T01:23:45.982Z,2.80
2018-04-12T01:26:14.353Z,2.93
2018-04-12T01:28:42.725Z,2.30
2018-04-12T01:31:11.129Z,2.70
2018-04-12T01:33:39.496Z,2.90
2018-04-12T01:36:08.582Z,2.90
2018-04-12T01:38:36.964Z,3.00
2018-04-12T01:41:05.337Z,3.53
2018-04-12T01:43:33.720Z,3.17
2018-04-12T01:46:02.098Z,3.40
2018-04-12T01:48:30.488Z,3.40
2018-04-12T01:53:57.500Z,3.83
2018-04-12T01:56:25.891Z,3.13
2018-04-12T01:58:54.252Z,2.63
2018-04-12T02:01:22.617Z,2.80
2018-04-12T02:03:50.981Z,3.20
2018-04-12T02:06:19.381Z,3.03
2018-04-12T02:08:47.756Z,2.90
2018-04-12T02:11:15.888Z,3.20
2018-04-12T02:13:45.426Z,3.67
2018-04-12T02:16:13.798Z,3.10
2018-04-12T02:18:42.828Z,2.83
2018-04-12T02:21:11.211Z,3.60
2018-04-12T02:23:39.591Z,2.63
2018-04-12T02:26:07.971Z,5.27
2018-04-12T02:28:36.533Z,3.33
2018-04-12T02:31:04.925Z,3.10
2018-04-12T02:33:33.297Z,3.97
2018-04-12T02:36:01.666Z,4.33
2018-04-12T02:38:29.801Z,3.53
2018-04-12T02:40:58.382Z,4.20
2018-04-12T02:43:26.749Z,3.70
2018-04-12T02:45:55.125Z,3.47
2018-04-12T02:48:23.532Z,3.20
2018-04-12T02:50:51.903Z,3.17
2018-04-12T02:53:20.282Z,3.57
2018-04-12T02:55:48.664Z,3.87
2018-04-12T02:58:17.075Z,4.10
2018-04-12T03:00:46.113Z,4.30
2018-04-12T03:03:14.479Z,3.90
2018-04-12T03:05:43.193Z,4.73
2018-04-12T03:08:11.569Z,4.07
2018-04-12T03:10:39.608Z,4.03
2018-04-12T03:13:07.979Z,3.80
2018-04-12T03:15:36.358Z,3.93
2018-04-12T03:18:04.745Z,4.10
2018-04-12T03:20:33.296Z,4.13
2018-04-12T03:23:01.674Z,3.90
2018-04-12T03:25:30.076Z,4.30
2018-04-12T03:27:58.455Z,4.17
2018-04-12T03:30:26.833Z,4.63
2018-04-12T03:32:55.214Z,4.43
2018-04-12T03:35:23.593Z,4.77
2018-04-12T03:37:51.966Z,5.13
2018-04-12T03:40:20.357Z,3.83
2018-04-12T03:42:48.743Z,4.60
2018-04-12T03:45:17.706Z,5.37
2018-04-12T03:47:46.091Z,3.97
2018-04-12T03:50:14.475Z,5.53
2018-04-12T03:52:42.845Z,4.53
2018-04-12T03:55:13.539Z,4.90
2018-04-12T03:57:41.926Z,3.70
2018-04-12T04:00:10.093Z,4.53
2018-04-12T04:02:38.459Z,4.50
2018-04-12T04:05:14.813Z,4.70
2018-04-12T04:07:43.320Z,4.90
2018-04-12T04:10:16.876Z,4.80
2018-04-12T04:12:45.240Z,5.60
2018-04-12T04:15:24.484Z,4.60
2018-04-12T04:18:04.465Z,5.60
2018-04-12T04:20:43.858Z,5.80
2018-04-12T04:23:12.242Z,5.50
2018-04-12T04:25:40.625Z,4.50
2018-04-12T04:28:09.057Z,5.60
2018-04-12T04:30:37.429Z,6.40
2018-04-12T04:33:05.794Z,5.00
2018-04-12T04:35:34.160Z,4.40
2018-04-12T04:38:02.550Z,5.57
2018-04-12T04:40:30.917Z,6.80
2018-04-12T04:42:59.335Z,6.17
2018-04-12T04:45:27.714Z,6.37
2018-04-12T04:47:55.872Z,6.07
2018-04-12T04:50:24.443Z,6.63
2018-04-12T04:52:52.842Z,5.80
2018-04-12T04:55:21.221Z,6.30
2018-04-12T04:57:49.374Z,5.57
2018-04-12T05:00:17.757Z,5.57
2018-04-12T05:02:45.899Z,5.80
2018-04-12T05:05:14.209Z,6.17
2018-04-12T05:07:42.371Z,6.50
2018-04-12T05:10:12.490Z,6.37
2018-04-12T05:12:40.881Z,6.00
2018-04-12T05:15:13.144Z,5.57
2018-04-12T05:17:41.235Z,5.80
2018-04-12T05:20:12.353Z,6.40
2018-04-12T05:22:40.492Z,8.70
2018-04-12T05:25:12.179Z,6.30
2018-04-12T05:27:40.571Z,7.07
2018-04-12T05:30:16.669Z,4.40
2018-04-12T05:32:45.078Z,6.50
2018-04-12T05:35:13.446Z,6.70
2018-04-12T05:37:41.829Z,5.23
2018-04-12T05:40:12.895Z,5.70
2018-04-12T05:42:41.289Z,5.30
2018-04-12T05:45:11.183Z,5.00
2018-04-12T05:47:39.550Z,6.47
2018-04-12T05:50:12.963Z,5.63
2018-04-12T05:52:41.812Z,5.60
2018-04-12T05:55:16.197Z,5.10
2018-04-12T05:57:44.569Z,6.20
2018-04-12T06:00:15.980Z,5.93
2018-04-12T06:02:44.352Z,5.13
2018-04-12T06:05:17.062Z,5.40
2018-04-12T06:07:45.437Z,5.73
2018-04-12T06:10:13.819Z,4.60
2018-04-12T06:12:42.199Z,5.30
2018-04-12T06:15:12.512Z,5.83
2018-04-12T06:17:40.889Z,5.77
2018-04-12T06:20:10.145Z,5.00
2018-04-12T06:22:38.509Z,5.70
2018-04-12T06:25:09.961Z,5.70
2018-04-12T06:27:38.373Z,6.00
2018-04-12T06:30:13.421Z,5.50
2018-04-12T06:32:41.827Z,4.57
2018-04-12T06:35:16.746Z,5.57
2018-04-12T06:37:45.112Z,4.30
2018-04-12T06:40:15.218Z,5.60
2018-04-12T06:42:43.588Z,5.07
2018-04-12T06:45:15.874Z,6.30
2018-04-12T06:47:44.324Z,5.30
2018-04-12T06:50:15.230Z,5.60
2018-04-12T06:52:45.045Z,6.30
2018-04-12T06:55:15.907Z,5.47
2018-04-12T06:57:44.278Z,4.77
2018-04-12T07:00:13.009Z,6.00
2018-04-12T07:02:41.374Z,3.77
2018-04-12T07:05:15.077Z,3.93
2018-04-12T07:07:43.450Z,3.70
2018-04-12T07:10:15.006Z,4.10
2018-04-12T07:12:43.384Z,3.63
2018-04-12T07:15:13.881Z,3.67
2018-04-12T07:17:42.248Z,3.10
2018-04-12T07:20:14.453Z,3.83
2018-04-12T07:22:42.848Z,3.93
2018-04-12T07:25:11.515Z,3.23
2018-04-12T07:27:39.663Z,4.40
2018-04-12T07:30:16.493Z,3.77
2018-04-12T07:32:44.865Z,3.07
2018-04-12T07:35:15.802Z,3.53
2018-04-12T07:37:43.941Z,3.20
2018-04-12T07:40:16.161Z,3.27
2018-04-12T07:42:44.534Z,3.70
2018-04-12T07:45:12.922Z,3.63
2018-04-12T07:47:41.061Z,3.10
2018-04-12T07:50:13.108Z,3.73
2018-04-12T07:52:41.499Z,3.37
2018-04-12T07:55:10.014Z,3.87
2018-04-12T07:57:38.193Z,3.47
2018-04-12T08:00:12.232Z,3.60
2018-04-12T08:02:40.606Z,3.47
2018-04-12T08:05:11.347Z,4.27
2018-04-12T08:07:39.712Z,3.40
2018-04-12T08:10:10.915Z,3.70
2018-04-12T08:12:39.296Z,3.80
2018-04-12T08:15:09.024Z,4.30
2018-04-12T08:17:37.386Z,3.00
2018-04-12T08:20:06.678Z,3.40
2018-04-12T08:22:37.796Z,3.73
2018-04-12T08:25:14.773Z,3.40
2018-04-12T08:27:43.157Z,4.07
2018-04-12T08:30:16.816Z,3.73
2018-04-12T08:32:45.196Z,4.40
2018-04-12T08:35:13.573Z,3.90
2018-04-12T08:37:41.942Z,3.70
2018-04-12T08:40:12.736Z,4.47
2018-04-12T08:42:41.110Z,4.40
2018-04-12T08:45:16.426Z,3.73
2018-04-12T08:47:44.824Z,4.70
2018-04-12T08:50:13.252Z,4.13
2018-04-12T08:52:41.638Z,3.90
2018-04-12T08:55:15.238Z,4.47
2018-04-12T08:57:43.629Z,4.63
2018-04-12T09:00:14.454Z,3.80
2018-04-12T09:02:42.831Z,4.00
2018-04-12T09:05:16.905Z,3.80
2018-04-12T09:07:45.298Z,4.27
2018-04-12T09:10:13.654Z,4.30
2018-04-12T09:12:42.025Z,4.77
2018-04-12T09:15:13.016Z,4.50
2018-04-12T09:17:41.368Z,3.60
2018-04-12T09:20:16.153Z,4.13
2018-04-12T09:22:44.512Z,3.60
2018-04-12T09:25:18.505Z,3.80
2018-04-12T09:27:46.924Z,4.00
2018-04-12T09:30:15.464Z,3.83
2018-04-12T09:32:43.831Z,4.33
2018-04-12T09:35:12.197Z,4.33
2018-04-12T09:37:40.561Z,4.33
2018-04-12T09:40:09.988Z,4.10
2018-04-12T09:42:38.149Z,4.43
2018-04-12T09:45:07.616Z,3.40
2018-04-12T09:47:35.979Z,3.90
2018-04-12T09:50:04.035Z,4.50
2018-04-12T09:52:32.392Z,3.40
2018-04-12T09:55:00.872Z,3.60
2018-04-12T09:57:29.231Z,4.20
2018-04-12T09:59:57.640Z,3.90
2018-04-12T10:02:29.168Z,3.60
2018-04-12T10:05:00.351Z,4.47
2018-04-12T10:10:37.829Z,4.10
2018-04-12T10:13:06.203Z,5.80
2018-04-12T10:15:34.581Z,4.17
2018-04-12T10:18:02.948Z,4.83
2018-04-12T10:20:31.325Z,4.70
2018-04-12T10:22:59.692Z,3.90
2018-04-12T10:25:28.072Z,3.47
2018-04-12T10:27:56.321Z,4.70
2018-04-12T10:30:24.725Z,4.00
2018-04-12T10:32:53.159Z,3.40
2018-04-12T10:35:21.675Z,4.37
2018-04-12T10:37:50.053Z,3.83
2018-04-12T10:40:18.438Z,3.30
2018-04-12T10:42:46.819Z,4.37
2018-04-12T10:45:14.965Z,4.50
2018-04-12T10:47:43.345Z,4.33
2018-04-12T10:50:11.730Z,4.10
2018-04-12T10:52:40.103Z,3.50
2018-04-12T10:55:08.551Z,4.20
2018-04-12T10:57:36.923Z,4.97
2018-04-12T11:00:05.590Z,3.80
2018-04-12T11:02:33.974Z,5.10
2018-04-12T11:05:02.352Z,4.63
2018-04-12T11:07:30.722Z,4.10
2018-04-12T11:09:59.099Z,5.40
2018-04-12T11:12:27.508Z,5.37
2018-04-12T11:14:55.895Z,4.43
2018-04-12T11:17:24.262Z,3.70
2018-04-12T11:19:52.709Z,4.83
2018-04-12T11:22:21.074Z,4.10
2018-04-12T11:24:49.450Z,4.13
2018-04-12T11:27:17.844Z,4.63
2018-04-12T11:29:46.234Z,4.47
2018-04-12T11:32:14.606Z,4.60
2018-04-12T11:34:43.008Z,4.10
2018-04-12T11:37:11.377Z,4.90
2018-04-12T11:39:39.748Z,5.13
2018-04-12T11:42:08.870Z,4.50
2018-04-12T11:44:37.281Z,4.20
2018-04-12T11:47:05.656Z,5.07
2018-04-12T11:49:34.041Z,4.87
2018-04-12T11:52:02.441Z,4.53
2018-04-12T11:54:30.816Z,4.00
2018-04-12T11:56:59.194Z,6.90
2018-04-12T11:59:27.604Z,6.07
2018-04-12T12:01:55.989Z,6.50
2018-04-12T12:04:24.365Z,5.90
2018-04-12T12:06:52.748Z,6.00
2018-04-12T12:09:21.175Z,5.37
2018-04-12T12:11:49.542Z,6.93
2018-04-12T12:14:17.928Z,5.93
2018-04-12T12:16:46.310Z,5.67
2018-04-12T12:19:14.701Z,5.40
2018-04-12T12:21:43.086Z,4.30
2018-04-12T12:24:11.465Z,4.93
2018-04-12T12:26:39.846Z,5.27
2018-04-12T12:29:08.215Z,5.33
2018-04-12T12:31:36.600Z,5.20
2018-04-12T12:34:04.983Z,4.80
2018-04-12T12:36:33.357Z,4.90
2018-04-12T12:39:01.753Z,5.87
2018-04-12T12:41:30.121Z,5.00
2018-04-12T12:43:58.488Z,6.07
2018-04-12T12:46:26.882Z,4.50
2018-04-12T12:48:55.254Z,5.97
2018-04-12T12:51:23.664Z,4.53
2018-04-12T12:53:52.049Z,5.40
2018-04-12T12:56:20.430Z,5.23
2018-04-12T12:58:48.808Z,5.27
2018-04-12T13:01:17.215Z,5.47
2018-04-12T13:03:45.620Z,5.40
2018-04-12T13:06:14.174Z,5.47
2018-04-12T13:08:42.559Z,4.63
2018-04-12T13:11:10.952Z,6.03
2018-04-12T13:13:39.331Z,5.13
2018-04-12T13:16:07.781Z,5.67
2018-04-12T13:18:36.168Z,4.70
2018-04-12T13:21:04.553Z,6.10
2018-04-12T13:23:32.712Z,5.60
2018-04-12T13:26:01.109Z,5.50
2018-04-12T13:28:29.256Z,4.40
2018-04-12T13:30:57.661Z,4.43
2018-04-12T13:33:26.645Z,5.30
2018-04-12T13:35:55.028Z,5.50
2018-04-12T13:38:23.401Z,7.90
2018-04-12T13:40:51.795Z,6.80
2018-04-12T13:43:20.185Z,5.10
2018-04-12T13:45:48.531Z,5.90
2018-04-12T13:48:16.666Z,5.50
2018-04-12T13:50:45.042Z,4.60
2018-04-12T13:53:13.435Z,6.63
2018-04-12T13:55:41.956Z,5.67
2018-04-12T13:58:10.323Z,5.03
2018-04-12T14:00:38.708Z,5.40
2018-04-12T14:03:07.087Z,4.73
2018-04-12T14:05:35.550Z,4.60
2018-04-12T14:08:03.931Z,6.00
2018-04-12T14:10:32.303Z,6.00
2018-04-12T14:13:00.679Z,4.27
2018-04-12T14:15:29.056Z,4.73
2018-04-12T14:17:57.425Z,6.20
2018-04-12T14:20:25.797Z,6.70
2018-04-12T14:22:54.171Z,5.33
2018-04-12T14:25:22.561Z,4.83
2018-04-12T14:27:50.933Z,6.07
2018-04-12T14:30:19.333Z,6.50
2018-04-12T14:32:47.713Z,5.33
2018-04-12T14:35:16.091Z,5.27
2018-04-12T14:37:44.509Z,6.17
2018-04-12T14:40:13.112Z,4.80
2018-04-12T14:42:41.482Z,4.40
2018-04-12T14:45:09.848Z,4.50
2018-04-12T14:47:38.275Z,4.90
2018-04-12T14:50:06.658Z,5.20
2018-04-12T14:52:35.042Z,4.70
2018-04-12T14:55:03.410Z,6.20
2018-04-12T14:57:31.781Z,4.20
2018-04-12T15:00:00.160Z,5.53
2018-04-12T15:02:28.527Z,4.60
2018-04-12T15:04:56.924Z,5.90
2018-04-12T15:07:25.240Z,5.20
2018-04-12T15:09:53.607Z,5.70
2018-04-12T15:12:21.973Z,4.23
2018-04-12T15:14:50.341Z,5.93
2018-04-12T15:17:18.716Z,5.00
2018-04-12T15:19:47.084Z,4.90
2018-04-12T15:22:15.468Z,4.17
2018-04-12T15:24:43.841Z,5.03
2018-04-12T15:27:12.238Z,4.90
2018-04-12T15:29:40.396Z,5.00
2018-04-12T15:32:09.330Z,6.37
2018-04-12T15:34:37.648Z,4.97
2018-04-12T15:37:05.723Z,6.50
2018-04-12T15:39:34.122Z,5.70
2018-04-12T15:42:02.565Z,6.10
2018-04-12T15:44:30.937Z,4.37
2018-04-12T15:46:59.336Z,6.13
2018-04-12T15:49:27.733Z,6.27
2018-04-12T15:51:56.119Z,6.77
2018-04-12T15:54:24.500Z,6.33
2018-04-12T15:56:52.875Z,5.83
2018-04-12T15:59:21.022Z,5.80
2018-04-12T16:01:49.181Z,6.60
2018-04-12T16:04:17.550Z,6.73
2018-04-12T16:06:46.249Z,4.43
2018-04-12T16:09:14.692Z,5.00
2018-04-12T16:11:43.074Z,7.77
2018-04-12T16:14:11.491Z,5.07
2018-04-12T16:16:40.066Z,5.77
2018-04-12T16:19:08.207Z,6.17
2018-04-12T16:21:36.352Z,6.30
2018-04-12T16:24:04.717Z,6.77
2018-04-12T16:26:33.111Z,6.40
2018-04-12T16:29:01.546Z,4.93
2018-04-12T16:31:29.975Z,5.70
2018-04-12T16:33:58.371Z,4.73
2018-04-12T16:36:26.964Z,5.40
2018-04-12T16:38:55.327Z,5.27
2018-04-12T16:41:23.509Z,5.20
2018-04-12T16:43:51.888Z,5.57
2018-04-12T16:46:20.254Z,6.10
2018-04-12T16:48:48.636Z,5.27
2018-04-12T16:51:16.803Z,5.50
2018-04-12T16:53:45.173Z,6.70
2018-04-12T16:56:13.315Z,6.13
2018-04-12T16:58:41.709Z,5.23
2018-04-12T17:01:10.100Z,5.57
2018-04-12T17:03:38.490Z,5.27
2018-04-12T17:06:07.057Z,5.00
2018-04-12T17:08:35.435Z,5.67
2018-04-12T17:11:03.810Z,5.23
2018-04-12T17:13:32.194Z,5.17
2018-04-12T17:16:00.344Z,5.70
2018-04-12T17:18:28.801Z,7.60
2018-04-12T17:20:57.180Z,6.33
2018-04-12T17:23:25.566Z,4.93
2018-04-12T17:25:53.948Z,5.83
2018-04-12T17:28:22.098Z,6.53
2018-04-12T17:30:50.482Z,6.07
2018-04-12T17:33:18.866Z,6.27
2018-04-12T17:35:47.234Z,6.80
2018-04-12T17:38:15.397Z,6.60
2018-04-12T17:40:43.772Z,6.57
2018-04-12T17:43:12.151Z,5.70
2018-04-12T17:45:40.515Z,6.50
2018-04-12T17:48:08.925Z,6.20
2018-04-12T17:50:37.493Z,6.23
2018-04-12T17:53:05.863Z,6.93
2018-04-12T17:55:34.253Z,6.33
2018-04-12T17:58:02.629Z,7.10
2018-04-12T18:00:31.021Z,5.87
2018-04-12T18:02:59.386Z,6.80
2018-04-12T18:05:27.781Z,7.87
2018-04-12T18:07:56.175Z,6.50
2018-04-12T18:10:24.361Z,5.00
2018-04-12T18:12:52.732Z,6.33
2018-04-12T18:15:21.122Z,5.80
2018-04-12T18:17:49.504Z,5.90
2018-04-12T18:20:17.876Z,7.30
2018-04-12T18:22:46.262Z,5.60
2018-04-12T18:25:14.639Z,6.07
2018-04-12T18:27:43.008Z,6.47
2018-04-12T18:30:11.473Z,6.67
2018-04-12T18:32:39.841Z,6.20
2018-04-12T18:35:10.058Z,7.43
2018-04-12T18:37:38.432Z,5.70
2018-04-12T18:40:06.840Z,6.87
2018-04-12T18:42:35.213Z,5.80
2018-04-12T18:45:03.699Z,6.87
2018-04-12T18:47:34.817Z,6.63
2018-04-12T18:50:03.892Z,7.73
2018-04-12T18:52:33.015Z,6.97
2018-04-12T18:55:01.174Z,6.67
2018-04-12T18:57:29.548Z,6.53
2018-04-12T18:59:57.928Z,5.23
2018-04-12T19:02:26.300Z,7.80
2018-04-12T19:04:54.685Z,8.07
2018-04-12T19:07:23.761Z,6.70
2018-04-12T19:09:52.136Z,7.03
2018-04-12T19:12:20.534Z,6.13
2018-04-12T19:14:48.901Z,6.40
2018-04-12T19:17:17.351Z,5.80
2018-04-12T19:19:45.740Z,6.83
2018-04-12T19:22:14.150Z,6.93
2018-04-12T19:24:42.575Z,5.90
2018-04-12T19:27:10.967Z,6.80
2018-04-12T19:29:39.345Z,6.70
2018-04-12T19:32:07.757Z,6.67
2018-04-12T19:34:36.339Z,7.27
2018-04-12T19:37:04.418Z,5.60
2018-04-12T19:39:32.792Z,5.90
2018-04-12T19:42:01.211Z,6.97
2018-04-12T19:44:29.376Z,6.90
2018-04-12T19:46:57.949Z,6.33
2018-04-12T19:49:26.370Z,6.77
2018-04-12T19:51:54.911Z,6.60
2018-04-12T19:54:23.281Z,6.97
2018-04-12T19:56:51.438Z,6.13
2018-04-12T19:59:19.835Z,7.73
2018-04-12T20:01:48.212Z,7.50
2018-04-12T20:04:16.658Z,6.60
2018-04-12T20:06:45.046Z,5.93
2018-04-12T20:09:13.425Z,7.20
2018-04-12T20:11:42.109Z,7.00
2018-04-12T20:14:10.494Z,6.83
2018-04-12T20:16:38.864Z,8.03
2018-04-12T20:19:07.238Z,7.33
2018-04-12T20:21:35.608Z,6.03
2018-04-12T20:24:04.035Z,6.30
2018-04-12T20:26:32.449Z,6.40
2018-04-12T20:29:00.832Z,7.10
2018-04-12T20:31:29.207Z,7.07
2018-04-12T20:33:57.899Z,6.13
2018-04-12T20:36:26.248Z,6.47
2018-04-12T20:38:54.625Z,6.73
2018-04-12T20:41:23.002Z,6.60
2018-04-12T20:43:51.365Z,7.40
2018-04-12T20:46:19.728Z,7.23
2018-04-12T20:48:48.109Z,6.47
2018-04-12T20:51:16.481Z,7.60
2018-04-12T20:53:44.861Z,6.37
2018-04-12T20:56:13.232Z,5.70
2018-04-12T20:58:41.612Z,7.20
2018-04-12T21:01:09.980Z,5.33
2018-04-12T21:03:38.355Z,6.93
2018-04-12T21:06:06.747Z,8.43
2018-04-12T21:08:35.118Z,7.27
2018-04-12T21:11:03.488Z,6.37
2018-04-12T21:13:31.872Z,8.03
2018-04-12T21:16:00.246Z,7.43
2018-04-12T21:18:28.674Z,7.30
2018-04-12T21:20:57.072Z,5.90
2018-04-12T21:23:25.446Z,6.87
2018-04-12T21:25:53.851Z,5.90
2018-04-12T21:28:22.097Z,7.57
2018-04-12T21:30:50.476Z,6.00
2018-04-12T21:33:18.949Z,7.90
2018-04-12T21:35:47.330Z,7.07
2018-04-12T21:38:15.770Z,6.97
2018-04-12T21:40:44.148Z,6.87
2018-04-12T21:43:12.303Z,6.93
2018-04-12T21:45:40.694Z,6.97
2018-04-12T21:48:09.072Z,6.80
2018-04-12T21:50:37.444Z,6.07
2018-04-12T21:53:05.829Z,9.03
2018-04-12T21:55:34.213Z,6.60
2018-04-12T21:58:02.592Z,6.80
2018-04-12T22:00:30.729Z,5.90
2018-04-12T22:02:59.097Z,6.33
2018-04-12T22:05:28.465Z,6.20
2018-04-12T22:07:57.433Z,6.20
2018-04-12T22:10:25.805Z,7.57
2018-04-12T22:12:54.207Z,7.60
2018-04-12T22:15:22.765Z,7.53
2018-04-12T22:17:51.145Z,7.27
2018-04-12T22:20:19.520Z,6.30
2018-04-12T22:22:47.901Z,8.90
2018-04-12T22:25:16.281Z,6.97
2018-04-12T22:27:44.653Z,7.00
2018-04-12T22:30:13.038Z,7.03
2018-04-12T22:32:41.421Z,7.33
2018-04-12T22:35:09.793Z,7.67
2018-04-12T22:37:38.172Z,6.70
2018-04-12T22:40:10.301Z,7.00
2018-04-12T22:42:38.701Z,6.13
2018-04-12T22:45:07.178Z,6.80
2018-04-12T22:47:35.548Z,6.07
2018-04-12T22:50:03.344Z,6.87
2018-04-12T22:52:31.803Z,6.33
2018-04-12T22:55:00.178Z,6.83
2018-04-12T22:57:28.577Z,7.00
2018-04-12T22:59:56.977Z,6.43
2018-04-12T23:02:25.358Z,6.63
2018-04-12T23:04:53.733Z,6.13
2018-04-12T23:07:22.125Z,6.30
2018-04-12T23:09:50.500Z,8.23
2018-04-12T23:12:18.904Z,8.97
2018-04-12T23:14:47.293Z,6.87
2018-04-12T23:17:15.662Z,6.93
2018-04-12T23:19:44.023Z,6.33
2018-04-12T23:22:12.405Z,7.70
2018-04-12T23:24:40.792Z,7.20
2018-04-12T23:27:08.933Z,6.83
2018-04-12T23:29:37.343Z,6.80
2018-04-12T23:32:05.941Z,7.30
2018-04-12T23:34:34.315Z,7.37
2018-04-12T23:37:02.703Z,6.60
2018-04-12T23:39:31.075Z,7.70
2018-04-12T23:41:59.680Z,6.53
2018-04-12T23:44:28.060Z,5.50
2018-04-12T23:46:56.439Z,6.03
2018-04-12T23:49:24.817Z,6.03
2018-04-12T23:51:53.212Z,5.23
2018-04-12T23:54:21.350Z,4.87
2018-04-12T23:56:49.745Z,7.10
2018-04-12T23:59:18.143Z,5.00
